Time;durP1;ratioP1;P1;durP2;ratioP2;P2;SDS_P1;SDS_P2;PMS_P1;PMS_P2;Temp;Humidity;BMP_temperature;BMP_pressure;BME280_temperature;BME280_humidity;BME280_pressure;Samples;Min_cycle;Max_cycle;Signal;HPM_P1;HPM_P2
2022/12/03 00:02:10;;;;;;;36.58;24.13;;;;;;;-12.16;79.81;102375.09;5007141;28;20349;-64
2022/12/03 00:04:36;;;;;;;38.70;25.17;;;;;;;-11.93;79.04;102384.25;5018427;28;20068;-65
2022/12/03 00:07:02;;;;;;;39.10;24.42;;;;;;;-12.08;79.18;102393.47;5016544;28;20030;-65
2022/12/03 00:09:27;;;;;;;38.15;24.70;;;;;;;-12.39;79.79;102332.56;5006031;28;20106;-64
2022/12/03 00:11:53;;;;;;;38.28;25.55;;;;;;;-12.02;79.33;102388.28;5024823;28;20030;-65
2022/12/03 00:14:18;;;;;;;36.88;24.95;;;;;;;-12.10;80.22;102387.38;5023290;28;20037;-65
2022/12/03 00:16:44;;;;;;;33.92;23.63;;;;;;;-12.04;79.28;102385.59;5024673;28;20025;-65
2022/12/03 00:19:09;;;;;;;36.08;24.80;;;;;;;-12.05;79.14;102393.81;5013726;28;20195;-65
2022/12/03 00:21:35;;;;;;;34.42;24.50;;;;;;;-12.01;79.85;102400.06;5005702;28;20026;-64
2022/12/03 00:24:01;;;;;;;36.40;24.88;;;;;;;-12.01;79.95;102390.06;5005201;28;20046;-64
2022/12/03 00:26:26;;;;;;;35.95;24.23;;;;;;;-11.95;80.07;102377.34;5004737;28;20180;-66
2022/12/03 00:28:53;;;;;;;36.58;24.27;;;;;;;-11.98;78.75;102390.41;5017412;28;20033;-67
2022/12/03 00:31:22;;;;;;;36.90;24.90;;;;;;;-11.92;79.90;102388.53;5023371;28;20074;-67
2022/12/03 00:33:48;;;;;;;38.03;24.58;;;;;;;-11.95;78.97;102388.25;4996792;28;20033;-67
2022/12/03 00:36:14;;;;;;;34.47;22.65;;;;;;;-12.00;79.97;102394.31;5022697;28;20065;-66
2022/12/03 00:38:39;;;;;;;36.20;24.63;;;;;;;-12.08;79.96;102383.47;5004954;28;20022;-66
2022/12/03 00:41:05;;;;;;;36.03;22.38;;;;;;;-12.12;79.32;102398.81;5022937;28;20029;-65
2022/12/03 00:43:30;;;;;;;37.13;24.38;;;;;;;-12.13;80.40;102397.03;5023356;28;20025;-65
2022/12/03 00:45:56;;;;;;;33.67;22.60;;;;;;;-12.18;79.18;102390.66;5016983;28;20054;-67
2022/12/03 00:48:22;;;;;;;35.47;22.98;;;;;;;-12.02;80.13;102388.28;5004044;28;20045;-67
2022/12/03 00:50:47;;;;;;;37.17;25.10;;;;;;;-11.96;79.95;102420.53;5004728;28;20057;-67
2022/12/03 00:53:13;;;;;;;35.72;23.88;;;;;;;-12.09;79.52;102390.78;5022114;28;20033;-65
2022/12/03 00:55:38;;;;;;;35.63;23.38;;;;;;;-12.07;79.77;102391.84;5011223;28;20069;-67
2022/12/03 00:58:04;;;;;;;38.00;23.73;;;;;;;-12.24;79.64;102379.94;5012541;28;20089;-66
2022/12/03 01:00:29;;;;;;;33.33;24.42;;;;;;;-11.93;78.64;102390.91;5023605;28;20033;-67
2022/12/03 01:02:55;;;;;;;38.67;24.85;;;;;;;-11.72;79.21;102408.28;5024013;28;20045;-66
2022/12/03 01:05:20;;;;;;;38.22;24.60;;;;;;;-11.92;78.12;102401.03;5019764;28;20096;-65
2022/12/03 01:07:46;;;;;;;34.40;23.40;;;;;;;-11.92;78.94;102396.03;5006859;28;20022;-64
2022/12/03 01:10:13;;;;;;;38.58;25.80;;;;;;;-11.87;79.43;102406.53;5004415;28;20026;-64
2022/12/03 01:12:39;;;;;;;36.63;23.67;;;;;;;-11.89;77.98;102410.50;5008874;28;20030;-64
2022/12/03 01:15:05;;;;;;;33.55;23.08;;;;;;;-12.00;78.70;102404.31;5023805;28;20104;-65
2022/12/03 01:17:31;;;;;;;35.60;23.20;;;;;;;-11.85;79.75;102415.13;5004136;28;20051;-64
2022/12/03 01:19:57;;;;;;;34.88;23.67;;;;;;;-11.81;79.16;102409.75;5018945;28;20393;-65
2022/12/03 01:22:24;;;;;;;35.35;24.05;;;;;;;-11.78;79.27;102412.59;5011449;28;20044;-65
2022/12/03 01:24:50;;;;;;;35.92;23.50;;;;;;;-12.52;78.05;102326.91;5020977;28;20030;-64
2022/12/03 01:27:15;;;;;;;33.42;22.92;;;;;;;-11.90;79.33;102414.56;5022413;28;20061;-65
2022/12/03 01:29:41;;;;;;;35.38;23.85;;;;;;;-11.94;79.45;102411.59;5003972;28;20026;-64
2022/12/03 01:32:20;;;;;;;35.38;23.38;;;;;;;-12.09;79.34;102410.78;5020102;28;20048;-64
2022/12/03 01:34:48;;;;;;;35.05;23.63;;;;;;;-12.35;79.00;102417.06;5023466;28;20329;-64
2022/12/03 01:37:14;;;;;;;35.10;23.77;;;;;;;-12.24;79.02;102404.91;5014203;28;20242;-64
2022/12/03 01:39:40;;;;;;;36.65;23.17;;;;;;;-11.98;79.60;102426.25;5008570;28;20088;-65
2022/12/03 01:42:10;;;;;;;33.97;23.17;;;;;;;-12.15;78.94;102390.97;5023574;28;20049;-67
2022/12/03 01:44:38;;;;;;;36.33;25.13;;;;;;;-12.05;78.50;102388.81;5003676;28;20026;-66
2022/12/03 01:47:09;;;;;;;34.88;24.60;;;;;;;-12.04;79.54;102412.16;5019773;28;20034;-65
2022/12/03 01:50:16;;;;;;;35.25;22.63;;;;;;;-12.05;78.37;102421.28;5023428;28;20030;-66
2022/12/03 01:52:42;;;;;;;35.85;21.58;;;;;;;-12.01;78.73;102418.41;5010156;28;20283;-65
2022/12/03 01:55:25;;;;;;;34.15;22.85;;;;;;;-11.94;78.41;102426.59;5011983;28;20064;-66
2022/12/03 01:57:54;;;;;;;31.25;21.27;;;;;;;-12.20;78.59;102437.91;5022503;28;20314;-64
2022/12/03 02:00:23;;;;;;;34.30;22.60;;;;;;;-12.26;78.84;102442.19;5021574;28;20128;-66
2022/12/03 02:02:52;;;;;;;32.38;21.52;;;;;;;-12.22;78.38;102413.47;5013444;28;20029;-64
2022/12/03 02:05:25;;;;;;;31.42;21.73;;;;;;;-12.39;79.42;102444.88;5009427;28;20210;-66
2022/12/03 02:07:51;;;;;;;36.67;23.38;;;;;;;-12.38;79.72;102431.69;5021493;28;20356;-65
2022/12/03 02:10:21;;;;;;;31.80;23.08;;;;;;;-12.17;79.56;102427.34;5017330;28;20054;-64
2022/12/03 02:12:53;;;;;;;34.25;22.42;;;;;;;-12.21;79.34;102425.22;5007581;28;20245;-65
2022/12/03 02:15:19;;;;;;;32.38;21.35;;;;;;;-12.34;78.72;102432.91;5009392;28;20046;-65
2022/12/03 02:17:45;;;;;;;32.00;21.70;;;;;;;-12.42;79.50;102434.53;5027010;28;20037;-65
2022/12/03 02:20:11;;;;;;;34.53;23.33;;;;;;;-12.21;78.76;102437.72;5010170;28;20041;-64
2022/12/03 02:23:01;;;;;;;33.03;22.45;;;;;;;-12.33;78.42;102444.69;5008944;28;20293;-64
2022/12/03 02:25:30;;;;;;;34.17;22.27;;;;;;;-12.52;78.71;102426.72;5007334;28;20065;-64
2022/12/03 02:27:58;;;;;;;34.08;22.50;;;;;;;-12.51;79.48;102414.41;5013668;28;20282;-65
2022/12/03 02:30:26;;;;;;;32.17;22.80;;;;;;;-12.32;79.58;102448.97;5024410;28;20072;-64
2022/12/03 02:32:53;;;;;;;34.58;23.27;;;;;;;-12.34;79.18;102436.31;5015738;28;20038;-65
2022/12/03 02:35:25;;;;;;;33.40;23.02;;;;;;;-12.57;79.01;102427.78;5026683;28;20021;-64
2022/12/03 02:37:54;;;;;;;33.60;22.77;;;;;;;-12.41;79.08;102448.81;5013113;28;20081;-64
2022/12/03 02:40:23;;;;;;;36.47;22.58;;;;;;;-12.36;78.77;102442.72;5016057;28;20056;-63
2022/12/03 02:42:52;;;;;;;35.72;22.92;;;;;;;-12.52;78.79;102434.22;5017682;28;20030;-64
2022/12/03 02:45:20;;;;;;;36.58;23.40;;;;;;;-12.28;80.06;102442.72;5007654;28;20034;-63
2022/12/03 02:47:56;;;;;;;36.97;23.85;;;;;;;-12.18;78.63;102433.97;5026625;28;20141;-64
2022/12/03 02:50:27;;;;;;;33.30;22.05;;;;;;;-12.28;78.58;102422.75;5025074;28;20314;-65
2022/12/03 02:52:55;;;;;;;33.55;21.60;;;;;;;-12.48;78.23;102420.47;5026619;28;20072;-64
2022/12/03 02:55:21;;;;;;;32.70;20.75;;;;;;;-12.53;78.59;102442.41;5016821;28;20310;-64
2022/12/03 02:57:49;;;;;;;32.13;20.05;;;;;;;-12.88;78.62;102434.19;5010181;28;20207;-64
2022/12/03 03:00:16;;;;;;;32.97;21.48;;;;;;;-12.79;79.06;102464.34;5009577;28;20030;-64
2022/12/03 03:02:43;;;;;;;31.17;20.70;;;;;;;-12.85;79.08;102459.50;5006710;28;20032;-65
2022/12/03 03:05:10;;;;;;;32.15;22.33;;;;;;;-12.99;79.05;102437.94;5020441;28;20105;-64
2022/12/03 03:07:37;;;;;;;28.90;20.33;;;;;;;-12.83;79.16;102450.59;5012311;28;20302;-64
2022/12/03 03:10:06;;;;;;;34.95;22.48;;;;;;;-12.97;79.07;102453.06;5014653;28;20049;-65
2022/12/03 03:12:32;;;;;;;34.25;21.95;;;;;;;-12.93;78.96;102446.13;5023434;28;20100;-66
2022/12/03 03:14:58;;;;;;;32.22;22.15;;;;;;;-12.82;79.08;102458.97;5006390;28;20311;-66
2022/12/03 03:17:23;;;;;;;31.58;20.88;;;;;;;-13.07;78.94;102451.97;5023745;28;20067;-65
2022/12/03 03:19:49;;;;;;;33.08;22.15;;;;;;;-12.95;79.35;102456.63;5012749;28;20097;-65
2022/12/03 03:22:16;;;;;;;30.65;20.95;;;;;;;-12.89;79.63;102468.22;5014216;28;20053;-64
2022/12/03 03:24:42;;;;;;;34.03;22.45;;;;;;;-12.88;79.28;102465.03;5021939;28;20018;-64
2022/12/03 03:27:07;;;;;;;36.42;21.58;;;;;;;-12.99;79.06;102459.50;5006101;28;20037;-64
2022/12/03 03:29:34;;;;;;;32.08;21.67;;;;;;;-13.09;78.93;102462.50;5019168;28;20061;-64
2022/12/03 03:32:01;;;;;;;30.33;20.63;;;;;;;-13.03;79.14;102469.09;5024401;28;20029;-65
2022/12/03 03:34:27;;;;;;;32.78;21.75;;;;;;;-13.11;79.14;102464.81;5015109;28;20057;-64
2022/12/03 03:36:52;;;;;;;33.85;22.98;;;;;;;-13.04;79.16;102464.84;5011195;28;20060;-65
2022/12/03 03:39:18;;;;;;;32.78;22.50;;;;;;;-13.02;79.22;102458.41;5024674;28;20022;-64
2022/12/03 03:41:45;;;;;;;35.55;22.33;;;;;;;-13.13;79.05;102476.19;5006014;28;20030;-64
2022/12/03 03:44:12;;;;;;;32.80;21.35;;;;;;;-13.31;79.60;102466.53;5020421;28;20038;-66
2022/12/03 03:46:38;;;;;;;36.22;21.58;;;;;;;-13.06;79.91;102468.72;5014223;28;20053;-65
2022/12/03 03:49:05;;;;;;;36.03;23.02;;;;;;;-12.95;79.15;102459.13;5006005;28;20027;-65
2022/12/03 03:51:33;;;;;;;33.22;22.30;;;;;;;-12.79;79.02;102475.19;5006510;28;20030;-65
2022/12/03 03:54:00;;;;;;;35.83;23.00;;;;;;;-12.85;78.34;102476.97;5025359;28;20022;-64
2022/12/03 03:56:26;;;;;;;30.98;21.85;;;;;;;-12.82;77.77;102477.31;5023065;28;20100;-65
2022/12/03 03:58:51;;;;;;;35.10;22.33;;;;;;;-13.01;77.93;102471.75;5021225;28;20075;-65
2022/12/03 04:01:17;;;;;;;31.60;21.58;;;;;;;-13.08;78.06;102480.13;5016673;28;20061;-65
2022/12/03 04:03:43;;;;;;;32.25;21.10;;;;;;;-13.45;78.82;102479.84;5009221;28;20156;-66
2022/12/03 04:06:09;;;;;;;32.05;22.30;;;;;;;-13.15;78.97;102487.59;5007968;28;20314;-65
2022/12/03 04:08:34;;;;;;;30.80;21.42;;;;;;;-13.43;78.61;102485.94;5015223;28;20029;-65
2022/12/03 04:13:44;;;;;;;32.35;22.67;;;;;;;-13.19;78.21;102483.84;5014630;28;20028;-66
2022/12/03 04:16:10;;;;;;;33.38;22.77;;;;;;;-13.26;78.62;102503.75;5014266;28;20030;-65
2022/12/03 04:18:44;;;;;;;31.40;22.10;;;;;;;-13.14;79.28;102488.47;5014600;28;20053;-66
2022/12/03 04:24:00;;;;;;;35.03;21.67;;;;;;;-13.41;78.54;102489.50;5013974;28;20025;-66
2022/12/03 04:29:10;;;;;;;30.95;22.48;;;;;;;-13.29;77.88;102490.94;5013406;28;20037;-66
2022/12/03 04:37:04;;;;;;;33.05;22.23;;;;;;;-13.02;78.59;102505.78;5013976;28;20334;-64
2022/12/03 04:39:30;;;;;;;36.55;23.63;;;;;;;-13.21;78.99;102509.28;5014059;28;20022;-64
2022/12/03 04:41:55;;;;;;;31.83;22.73;;;;;;;-13.22;78.77;102507.53;5014937;28;20187;-65
2022/12/03 04:44:36;;;;;;;34.75;22.05;;;;;;;-13.24;78.70;102514.81;4999087;28;20036;-65
2022/12/03 04:47:17;;;;;;;31.17;22.77;;;;;;;-13.36;79.49;102495.94;5015652;28;20030;-65
2022/12/03 04:49:46;;;;;;;32.45;21.77;;;;;;;-13.45;79.45;102503.19;5014685;28;20034;-65
2022/12/03 04:52:13;;;;;;;34.40;22.95;;;;;;;-13.30;78.75;102500.72;5013713;28;20049;-65
2022/12/03 04:54:40;;;;;;;36.70;23.65;;;;;;;-13.04;79.51;102521.28;5028750;28;20038;-65
2022/12/03 04:57:06;;;;;;;34.45;24.48;;;;;;;-12.83;78.75;102527.03;5012429;28;20310;-65
2022/12/03 04:59:33;;;;;;;33.08;21.98;;;;;;;-12.98;78.65;102526.09;5011752;28;20035;-65
2022/12/03 05:01:58;;;;;;;33.42;23.05;;;;;;;-13.16;79.23;102529.81;5008118;28;20317;-66
2022/12/03 05:04:24;;;;;;;32.83;22.38;;;;;;;-13.48;79.36;102531.81;5003769;28;20052;-65
2022/12/03 05:06:49;;;;;;;36.33;23.75;;;;;;;-13.31;80.51;102524.72;5008244;28;20072;-66
2022/12/03 05:09:15;;;;;;;35.47;24.92;;;;;;;-13.15;80.01;102529.06;5022785;28;20042;-65
2022/12/03 05:11:41;;;;;;;32.83;22.35;;;;;;;-13.45;80.13;102530.63;5023209;28;20343;-66
2022/12/03 05:14:08;;;;;;;35.10;23.80;;;;;;;-13.35;81.12;102519.25;5009444;28;20121;-67
2022/12/03 05:16:34;;;;;;;36.45;23.35;;;;;;;-13.33;80.87;102541.13;5013748;28;20041;-65
2022/12/03 05:19:00;;;;;;;36.35;24.70;;;;;;;-13.13;80.78;102541.00;5018446;28;20022;-65
2022/12/03 05:21:25;;;;;;;33.25;22.98;;;;;;;-13.34;80.76;102550.94;5009937;28;20298;-66
2022/12/03 05:23:51;;;;;;;33.08;22.75;;;;;;;-13.11;80.76;102541.19;5003458;28;20030;-67
2022/12/03 05:26:17;;;;;;;31.80;22.42;;;;;;;-13.09;80.40;102547.28;5003304;28;20033;-65
2022/12/03 05:28:43;;;;;;;35.30;24.15;;;;;;;-12.91;80.44;102548.56;5014985;28;20202;-65
2022/12/03 05:31:08;;;;;;;33.30;22.05;;;;;;;-12.97;79.83;102553.72;5017170;28;20209;-67
2022/12/03 05:33:34;;;;;;;33.15;21.60;;;;;;;-13.07;80.00;102555.81;5005274;28;20034;-66
2022/12/03 05:36:00;;;;;;;36.78;22.65;;;;;;;-12.98;80.29;102556.03;5023509;28;20253;-65
2022/12/03 05:38:25;;;;;;;33.42;22.83;;;;;;;-12.86;80.15;102558.38;5006191;28;20018;-65
2022/12/03 05:40:51;;;;;;;34.00;21.90;;;;;;;-13.32;79.97;102484.69;5015975;28;20030;-65
2022/12/03 05:43:16;;;;;;;33.13;22.20;;;;;;;-12.77;79.96;102556.06;5015855;28;20330;-66
2022/12/03 05:45:43;;;;;;;34.97;21.88;;;;;;;-12.85;79.16;102559.28;5006378;28;20069;-66
2022/12/03 05:48:11;;;;;;;37.47;22.38;;;;;;;-12.72;79.62;102561.63;5023208;28;20084;-64
2022/12/03 05:50:39;;;;;;;36.33;22.27;;;;;;;-12.61;79.48;102563.78;5023059;28;20026;-66
2022/12/03 05:53:05;;;;;;;33.28;23.10;;;;;;;-12.44;79.07;102550.81;5009352;28;20053;-65
2022/12/03 05:55:31;;;;;;;35.08;22.38;;;;;;;-12.40;78.90;102554.53;5003489;28;20105;-65
2022/12/03 05:57:56;;;;;;;34.45;22.83;;;;;;;-12.33;79.05;102550.41;5009187;28;20018;-65
2022/12/03 06:00:25;;;;;;;34.30;20.80;;;;;;;-12.56;78.72;102540.25;5023008;28;20084;-67
2022/12/03 06:02:52;;;;;;;35.25;22.67;;;;;;;-12.42;79.01;102556.84;5003509;28;20054;-67
2022/12/03 06:05:18;;;;;;;37.35;23.25;;;;;;;-12.69;79.34;102492.13;5018915;28;20089;-67
2022/12/03 06:07:45;;;;;;;34.13;22.20;;;;;;;-12.24;78.85;102547.22;5022944;28;20026;-65
2022/12/03 06:10:13;;;;;;;34.88;22.73;;;;;;;-12.33;78.66;102567.03;5020992;28;20029;-66
2022/12/03 06:12:39;;;;;;;35.42;22.95;;;;;;;-12.12;78.48;102553.66;5023135;28;20038;-66
2022/12/03 06:15:05;;;;;;;31.75;20.77;;;;;;;-11.98;78.39;102547.75;5015428;28;20061;-66
2022/12/03 06:17:31;;;;;;;33.72;21.58;;;;;;;-12.33;78.31;102550.41;5008823;28;20228;-67
2022/12/03 06:19:56;;;;;;;30.83;21.15;;;;;;;-12.26;78.60;102538.69;5023054;28;20025;-66
2022/12/03 06:22:22;;;;;;;30.08;21.15;;;;;;;-12.20;78.96;102537.78;5018866;28;20026;-68
2022/12/03 06:24:49;;;;;;;34.42;21.58;;;;;;;-12.08;78.61;102545.81;5019830;28;20345;-66
2022/12/03 06:27:14;;;;;;;33.00;21.65;;;;;;;-11.98;78.12;102558.63;5003103;28;20077;-67
2022/12/03 06:29:40;;;;;;;37.33;23.98;;;;;;;-11.99;78.80;102556.84;5021747;28;20333;-66
2022/12/03 06:32:06;;;;;;;33.33;21.88;;;;;;;-12.04;78.24;102545.44;5009252;28;20030;-66
2022/12/03 06:34:32;;;;;;;36.80;21.50;;;;;;;-11.90;79.04;102551.09;5027236;28;20214;-67
2022/12/03 06:36:58;;;;;;;33.60;21.67;;;;;;;-11.72;79.23;102552.31;5018447;28;20018;-67
2022/12/03 06:39:23;;;;;;;33.45;21.83;;;;;;;-11.52;79.61;102550.47;5003125;28;20033;-66
2022/12/03 06:41:49;;;;;;;30.95;19.85;;;;;;;-11.65;80.02;102542.31;5022557;28;20072;-68
2022/12/03 06:44:15;;;;;;;31.42;19.83;;;;;;;-11.49;80.28;102534.94;5015867;28;20098;-66
2022/12/03 06:46:40;;;;;;;29.60;19.80;;;;;;;-11.35;79.95;102539.88;5013581;28;20034;-68
2022/12/03 06:49:08;;;;;;;35.58;21.65;;;;;;;-11.30;79.40;102522.88;5011961;28;20036;-67
2022/12/03 06:51:34;;;;;;;32.28;21.27;;;;;;;-11.19;80.12;102534.13;5023784;28;20038;-68
2022/12/03 06:54:00;;;;;;;35.40;20.90;;;;;;;-11.08;80.12;102537.81;5006754;28;20030;-67
2022/12/03 06:56:25;;;;;;;35.30;22.45;;;;;;;-11.01;79.23;102523.66;5006293;28;20026;-68
2022/12/03 06:58:51;;;;;;;33.15;19.02;;;;;;;-10.74;79.09;102529.03;5020096;28;20022;-66
2022/12/03 07:01:17;;;;;;;33.15;20.33;;;;;;;-10.85;78.81;102532.88;5019363;28;20026;-68
2022/12/03 07:03:42;;;;;;;35.60;20.00;;;;;;;-10.88;79.49;102520.03;5008430;28;20026;-67
2022/12/03 07:06:08;;;;;;;33.25;19.13;;;;;;;-10.88;80.01;102512.53;5024139;28;20041;-65
2022/12/03 07:08:34;;;;;;;38.15;21.48;;;;;;;-10.80;80.12;102525.16;5008580;28;20058;-66
2022/12/03 07:10:59;;;;;;;39.35;22.27;;;;;;;-10.80;80.13;102520.16;5013072;28;20021;-67
2022/12/03 07:13:25;;;;;;;38.15;21.73;;;;;;;-10.64;80.77;102525.22;5015033;28;20068;-67
2022/12/03 07:15:51;;;;;;;35.58;20.15;;;;;;;-10.70;79.84;102528.66;5014606;28;20050;-66
2022/12/03 07:18:17;;;;;;;32.75;19.65;;;;;;;-10.54;80.73;102523.75;5014581;28;20101;-66
2022/12/03 07:20:42;;;;;;;34.72;19.77;;;;;;;-10.59;80.27;102523.22;5014912;28;20029;-66
2022/12/03 07:23:08;;;;;;;33.20;20.02;;;;;;;-10.39;79.63;102527.88;5019061;28;20041;-67
2022/12/03 07:25:33;;;;;;;31.15;19.40;;;;;;;-10.25;78.61;102527.72;5013792;28;20203;-67
2022/12/03 07:27:59;;;;;;;32.40;17.85;;;;;;;-10.45;79.96;102528.09;5016379;28;20298;-68
2022/12/03 07:30:26;;;;;;;28.40;17.85;;;;;;;-10.44;80.79;102524.00;5015447;28;20073;-67
2022/12/03 07:32:52;;;;;;;31.08;19.70;;;;;;;-10.18;79.21;102526.78;5014487;28;20034;-67
2022/12/03 07:35:18;;;;;;;36.75;19.77;;;;;;;-10.48;80.35;102522.78;5010062;28;20045;-66
2022/12/03 07:37:43;;;;;;;33.80;19.95;;;;;;;-10.36;79.43;102529.84;5007318;28;20053;-67
2022/12/03 07:40:10;;;;;;;32.83;18.77;;;;;;;-10.65;81.03;102530.94;5014394;28;20033;-67
2022/12/03 07:42:35;;;;;;;34.88;20.25;;;;;;;-10.36;80.99;102530.75;5011228;28;20030;-67
2022/12/03 07:45:01;;;;;;;33.13;19.42;;;;;;;-10.48;79.39;102527.78;5025218;28;20034;-66
2022/12/03 07:47:28;;;;;;;34.38;19.70;;;;;;;-10.48;80.09;102529.41;5020743;28;20037;-68
2022/12/03 07:49:53;;;;;;;34.65;19.92;;;;;;;-10.29;79.44;102532.25;5016740;28;20049;-67
2022/12/03 07:52:19;;;;;;;36.17;20.10;;;;;;;-10.19;79.82;102532.53;5023411;28;20029;-68
2022/12/03 07:54:44;;;;;;;36.38;20.15;;;;;;;-10.15;79.62;102531.25;5019541;28;20306;-67
2022/12/03 07:57:10;;;;;;;32.65;18.13;;;;;;;-10.60;80.12;102567.41;5013966;28;20042;-66
2022/12/03 07:59:35;;;;;;;34.45;19.63;;;;;;;-10.48;79.08;102527.78;5024648;28;20030;-66
2022/12/03 08:02:01;;;;;;;33.72;19.55;;;;;;;-10.39;78.71;102519.50;5012895;28;20106;-68
2022/12/03 08:04:27;;;;;;;33.08;19.88;;;;;;;-10.23;79.01;102525.44;5032803;28;20381;-66
2022/12/03 08:06:53;;;;;;;37.00;20.70;;;;;;;-10.15;77.22;102526.25;5021817;28;20050;-66
2022/12/03 08:09:19;;;;;;;36.22;21.98;;;;;;;-10.10;78.64;102520.13;5004563;28;20105;-66
2022/12/03 08:11:46;;;;;;;34.58;19.70;;;;;;;-10.02;78.90;102506.78;5019757;28;20090;-67
2022/12/03 08:14:14;;;;;;;34.67;20.83;;;;;;;-10.29;78.43;102508.13;5009601;28;20109;-65
2022/12/03 08:16:42;;;;;;;38.13;21.40;;;;;;;-10.27;80.59;102524.19;5013999;28;20187;-66
2022/12/03 08:19:16;;;;;;;35.22;21.10;;;;;;;-10.25;79.23;102514.31;5019548;28;20345;-67
2022/12/03 08:21:58;;;;;;;36.22;20.05;;;;;;;-10.42;79.82;102495.00;4987739;28;20113;-65
2022/12/03 08:24:24;;;;;;;37.13;21.02;;;;;;;-10.09;78.75;102520.28;5004676;28;20038;-66
2022/12/03 08:26:49;;;;;;;41.03;22.45;;;;;;;-9.94;79.85;102508.50;5015451;28;20030;-65
2022/12/03 08:29:18;;;;;;;39.67;21.33;;;;;;;-10.13;80.05;102505.63;5014323;28;20025;-66
2022/12/03 08:31:50;;;;;;;38.80;21.88;;;;;;;-9.69;80.44;102531.16;5014438;28;20025;-66
2022/12/03 08:34:19;;;;;;;38.15;21.17;;;;;;;-9.71;79.00;102498.38;5023655;28;20053;-67
2022/12/03 08:36:46;;;;;;;35.05;21.63;;;;;;;-9.51;78.86;102506.25;5022358;28;20025;-66
2022/12/03 08:39:24;;;;;;;36.20;21.63;;;;;;;-9.79;78.27;102494.22;5004459;28;20360;-65
2022/12/03 08:44:41;;;;;;;38.92;22.00;;;;;;;-9.27;78.31;102512.94;5022224;28;20026;-66
2022/12/03 08:47:19;;;;;;;39.80;21.92;;;;;;;-9.28;79.53;102491.97;5011595;28;20037;-65
2022/12/03 08:50:00;;;;;;;37.60;21.52;;;;;;;-9.17;78.28;102497.22;5012913;28;20218;-66
2022/12/03 08:52:34;;;;;;;35.90;21.83;;;;;;;-9.11;79.58;102502.88;5016969;28;20026;-68
2022/12/03 08:55:29;;;;;;;35.50;20.58;;;;;;;-9.04;79.56;102512.81;5007980;28;20467;-67
2022/12/03 08:57:55;;;;;;;37.17;21.33;;;;;;;-8.91;78.79;102520.00;5023848;28;20089;-67
2022/12/03 09:00:22;;;;;;;37.53;20.40;;;;;;;-8.94;79.00;102504.63;5023717;28;20022;-68
2022/12/03 09:02:53;;;;;;;38.72;18.42;;;;;;;-9.16;80.37;102509.94;5024029;28;20026;-69
2022/12/03 09:05:28;;;;;;;37.28;20.13;;;;;;;-9.25;81.31;102524.03;5022583;28;20026;-66
2022/12/03 09:07:53;;;;;;;41.30;20.88;;;;;;;-9.11;80.64;102515.44;5023677;28;20025;-68
2022/12/03 09:10:19;;;;;;;37.63;20.02;;;;;;;-9.22;81.13;102501.75;5013497;28;20101;-67
2022/12/03 09:12:44;;;;;;;40.58;22.45;;;;;;;-8.95;80.63;102510.38;5005540;28;20318;-67
2022/12/03 09:15:10;;;;;;;43.65;22.10;;;;;;;-8.86;81.18;102502.16;5024104;28;20061;-67
2022/12/03 09:17:36;;;;;;;38.17;21.35;;;;;;;-8.89;81.70;102511.91;5007435;28;20034;-66
2022/12/03 09:20:03;;;;;;;34.30;20.25;;;;;;;-8.97;81.44;102496.78;5015517;28;20060;-66
2022/12/03 09:22:29;;;;;;;38.97;20.52;;;;;;;-8.85;81.06;102503.94;5017761;28;20030;-67
2022/12/03 09:24:54;;;;;;;40.20;20.45;;;;;;;-8.79;81.56;102507.78;5021327;28;20253;-67
2022/12/03 09:27:21;;;;;;;37.55;19.38;;;;;;;-8.70;80.48;102488.66;5003719;28;20022;-66
2022/12/03 09:29:47;;;;;;;30.88;19.23;;;;;;;-8.94;81.94;102512.16;5021647;28;20072;-65
2022/12/03 09:32:13;;;;;;;39.22;21.58;;;;;;;-8.87;81.64;102507.03;5012244;28;20033;-67
2022/12/03 09:34:38;;;;;;;32.78;19.42;;;;;;;-8.64;81.92;102511.00;5015029;28;20030;-67
2022/12/03 09:37:04;;;;;;;37.05;20.65;;;;;;;-8.54;81.10;102507.03;5003809;28;20034;-67
2022/12/03 09:39:29;;;;;;;39.72;20.60;;;;;;;-8.48;81.55;102504.28;5003641;28;20041;-68
2022/12/03 09:41:55;;;;;;;34.03;18.63;;;;;;;-8.30;81.55;102520.28;5022261;28;20026;-67
2022/12/03 09:44:21;;;;;;;37.35;20.85;;;;;;;-8.21;80.83;102501.13;5021547;28;20034;-67
2022/12/03 09:46:47;;;;;;;33.53;19.67;;;;;;;-8.13;80.65;102503.50;5014175;28;20060;-68
2022/12/03 09:49:15;;;;;;;36.05;19.92;;;;;;;-8.25;80.21;102503.16;5007783;28;20022;-68
2022/12/03 09:51:42;;;;;;;37.70;19.20;;;;;;;-8.20;80.12;102497.84;5022621;28;20025;-67
2022/12/03 09:54:15;;;;;;;37.50;20.65;;;;;;;-8.08;80.17;102514.88;5005791;28;20022;-67
2022/12/03 09:56:40;;;;;;;31.90;17.25;;;;;;;-8.35;80.23;102517.31;5015856;28;20222;-67
2022/12/03 09:59:12;;;;;;;36.05;19.83;;;;;;;-8.31;81.56;102508.44;5022741;28;20093;-67
2022/12/03 10:01:38;;;;;;;32.42;18.92;;;;;;;-8.26;81.45;102497.25;5020478;28;20123;-66
2022/12/03 10:04:04;;;;;;;36.92;20.70;;;;;;;-8.25;81.37;102496.53;5012319;28;20026;-67
2022/12/03 10:06:30;;;;;;;33.63;18.45;;;;;;;-8.15;81.06;102501.72;5009563;28;20110;-67
2022/12/03 10:08:58;;;;;;;34.42;18.73;;;;;;;-8.23;81.18;102500.06;5005762;28;20274;-67
2022/12/03 10:11:25;;;;;;;31.77;17.92;;;;;;;-8.33;80.88;102507.41;5010789;28;20072;-67
2022/12/03 10:13:53;;;;;;;32.65;18.38;;;;;;;-8.34;81.49;102485.53;5013094;28;20029;-68
2022/12/03 10:16:20;;;;;;;33.13;19.90;;;;;;;-8.36;81.85;102490.41;5003645;28;20034;-67
2022/12/03 10:18:54;;;;;;;36.20;19.27;;;;;;;-8.52;81.31;102480.47;5003728;28;20038;-67
2022/12/03 10:21:30;;;;;;;36.58;20.17;;;;;;;-8.38;82.42;102470.88;5021763;28;20195;-68
2022/12/03 10:24:28;;;;;;;33.80;18.83;;;;;;;-7.98;82.11;102499.97;5008753;28;20333;-70
2022/12/03 10:26:59;;;;;;;36.13;20.83;;;;;;;-8.09;81.43;102465.34;5009883;28;20044;-67
2022/12/03 10:29:27;;;;;;;32.38;18.80;;;;;;;-7.96;81.56;102506.06;5021051;28;20022;-67
2022/12/03 10:32:07;;;;;;;36.28;19.90;;;;;;;-7.93;80.88;102506.38;5009184;28;20325;-67
2022/12/03 10:34:36;;;;;;;38.38;22.20;;;;;;;-7.82;80.94;102482.28;5026760;28;20025;-67
2022/12/03 10:37:18;;;;;;;36.30;20.42;;;;;;;-7.72;80.85;102504.19;5024053;28;20615;-67
2022/12/03 10:39:59;;;;;;;38.50;20.42;;;;;;;-7.98;81.14;102505.00;5007311;28;20026;-66
2022/12/03 10:42:34;;;;;;;35.70;20.15;;;;;;;-7.95;81.83;102515.41;5026493;28;20034;-67
2022/12/03 10:45:11;;;;;;;35.15;20.00;;;;;;;-7.91;81.70;102499.88;5007757;28;20033;-67
2022/12/03 10:47:37;;;;;;;36.70;19.50;;;;;;;-7.98;81.32;102497.47;5022345;28;20082;-67
2022/12/03 10:50:05;;;;;;;37.88;20.35;;;;;;;-7.93;81.35;102513.91;5015723;28;20046;-65
2022/12/03 10:52:31;;;;;;;37.33;19.42;;;;;;;-8.00;81.85;102484.75;5006675;28;20273;-65
2022/12/03 10:54:57;;;;;;;41.47;22.40;;;;;;;-7.83;82.12;102501.50;5008583;28;20230;-67
2022/12/03 10:57:23;;;;;;;36.92;20.80;;;;;;;-7.72;81.76;102495.03;5025977;28;20041;-67
2022/12/03 10:59:49;;;;;;;34.20;20.08;;;;;;;-7.67;81.36;102497.97;5026456;28;20030;-68
2022/12/03 11:02:21;;;;;;;37.83;20.15;;;;;;;-7.70;80.11;102496.03;5025788;28;20029;-69
2022/12/03 11:04:48;;;;;;;41.03;20.75;;;;;;;-7.70;81.86;102505.22;5017375;28;20053;-67
2022/12/03 11:07:16;;;;;;;40.03;20.70;;;;;;;-7.98;81.93;102494.94;5008669;28;20258;-66
2022/12/03 11:09:47;;;;;;;43.97;22.05;;;;;;;-7.77;81.83;102511.28;5026168;28;20089;-66
2022/12/03 11:12:33;;;;;;;42.20;22.20;;;;;;;-7.59;81.41;102507.16;5011915;28;20191;-70
2022/12/03 11:15:06;;;;;;;40.45;22.52;;;;;;;-7.73;81.65;102487.31;5007859;28;20050;-67
2022/12/03 11:17:39;;;;;;;37.28;21.75;;;;;;;-7.49;81.84;102507.31;5006974;28;20030;-67
2022/12/03 11:20:31;;;;;;;38.13;22.23;;;;;;;-7.53;81.21;102509.38;5013912;28;20356;-67
2022/12/03 11:22:57;;;;;;;38.65;22.38;;;;;;;-7.75;82.07;102511.41;5013195;28;20026;-66
2022/12/03 11:25:26;;;;;;;40.97;23.33;;;;;;;-7.65;82.09;102504.06;5015941;28;20046;-67